Time;durP1;ratioP1;P1;durP2;ratioP2;P2;SDS_P1;SDS_P2;PMS_P1;PMS_P2;Temp;Humidity;BMP_temperature;BMP_pressure;BME280_temperature;BME280_humidity;BME280_pressure;Samples;Min_cycle;Max_cycle;Signal;HPM_P1;HPM_P2
2022/11/28 00:00:12;;;;;;;48.55;22.35;;;;;;;;;;1044722;28;20025;-76
2022/11/28 00:00:42;;;;;;;49.20;19.55;;;;;;;;;;1048180;28;20485;-76
2022/11/28 00:01:16;;;;;;;48.28;20.88;;;;;;;;;;1047820;28;20033;-76
2022/11/28 00:01:46;;;;;;;57.13;22.50;;;;;;;;;;1047245;28;20020;-76
2022/11/28 00:02:17;;;;;;;51.20;20.90;;;;;;;;;;1046960;28;20028;-76
2022/11/28 00:02:47;;;;;;;62.03;21.50;;;;;;;;;;1046718;28;20089;-76
2022/11/28 00:03:18;;;;;;;54.90;20.38;;;;;;;;;;1045505;28;20021;-76
2022/11/28 00:03:49;;;;;;;60.15;22.65;;;;;;;;;;1045569;28;21201;-76
2022/11/28 00:04:19;;;;;;;59.53;20.02;;;;;;;;;;1047351;28;20022;-76
2022/11/28 00:04:51;;;;;;;49.78;19.80;;;;;;;;;;1049558;28;20047;-76
2022/11/28 00:05:21;;;;;;;52.53;22.35;;;;;;;;;;1050241;28;20465;-76
2022/11/28 00:05:52;;;;;;;53.05;18.52;;;;;;;;;;1048509;28;20020;-76
2022/11/28 00:06:22;;;;;;;53.47;21.25;;;;;;;;;;1046190;28;20021;-76
2022/11/28 00:06:53;;;;;;;63.03;22.42;;;;;;;;;;1046268;28;20021;-76
2022/11/28 00:07:24;;;;;;;44.47;17.58;;;;;;;;;;1046803;28;20040;-76
2022/11/28 00:07:54;;;;;;;47.10;21.65;;;;;;;;;;1044340;28;20020;-76
2022/11/28 00:08:25;;;;;;;49.13;19.15;;;;;;;;;;1047255;28;20069;-76
2022/11/28 00:08:58;;;;;;;50.90;19.63;;;;;;;;;;1042630;28;20025;-76
2022/11/28 00:09:29;;;;;;;43.45;18.33;;;;;;;;;;1046510;28;20021;-76
2022/11/28 00:10:00;;;;;;;42.60;17.15;;;;;;;;;;1047239;28;20027;-76
2022/11/28 00:10:31;;;;;;;65.00;19.65;;;;;;;;;;1045907;28;20082;-76
2022/11/28 00:11:05;;;;;;;52.83;18.15;;;;;;;;;;1048361;28;20060;-76
2022/11/28 00:11:38;;;;;;;53.08;20.83;;;;;;;;;;1046085;28;20025;-76
2022/11/28 00:12:08;;;;;;;39.33;18.70;;;;;;;;;;1045550;28;20050;-76
2022/11/28 00:12:39;;;;;;;62.42;19.40;;;;;;;;;;1045541;28;20066;-76
2022/11/28 00:13:10;;;;;;;48.67;17.20;;;;;;;;;;1044730;28;20025;-76
2022/11/28 00:13:41;;;;;;;47.28;19.00;;;;;;;;;;1045905;28;20017;-76
2022/11/28 00:14:12;;;;;;;50.13;18.73;;;;;;;;;;1047560;28;20020;-76
2022/11/28 00:14:42;;;;;;;45.47;17.77;;;;;;;;;;1045982;28;20055;-76
2022/11/28 00:15:13;;;;;;;51.28;17.80;;;;;;;;;;1047285;28;20029;-76
2022/11/28 00:15:44;;;;;;;46.88;17.60;;;;;;;;;;1048882;28;20070;-76
2022/11/28 00:16:19;;;;;;;45.10;18.75;;;;;;;;;;1043146;28;20574;-76
2022/11/28 00:16:49;;;;;;;42.58;17.50;;;;;;;;;;1043271;28;20030;-76
2022/11/28 00:17:20;;;;;;;44.03;17.33;;;;;;;;;;1038656;28;20078;-76
2022/11/28 00:17:51;;;;;;;45.20;18.85;;;;;;;;;;1038032;28;20026;-76
2022/11/28 00:18:21;;;;;;;46.80;18.02;;;;;;;;;;1043304;28;20021;-76
2022/11/28 00:18:53;;;;;;;40.38;17.10;;;;;;;;;;1046133;28;20029;-76
2022/11/28 00:19:23;;;;;;;46.25;16.60;;;;;;;;;;1049446;28;20020;-76
2022/11/28 00:19:54;;;;;;;42.75;18.10;;;;;;;;;;1046502;28;20020;-76
2022/11/28 00:20:24;;;;;;;39.33;15.02;;;;;;;;;;1046508;28;20126;-76
2022/11/28 00:20:58;;;;;;;44.92;15.57;;;;;;;;;;1047438;28;20123;-76
2022/11/28 00:21:30;;;;;;;33.40;13.98;;;;;;;;;;1045886;28;20020;-76
2022/11/28 00:22:00;;;;;;;29.08;15.00;;;;;;;;;;1049678;28;20759;-76
2022/11/28 00:22:31;;;;;;;32.22;14.10;;;;;;;;;;1046286;28;20025;-76
2022/11/28 00:23:02;;;;;;;33.55;15.43;;;;;;;;;;1045601;28;20074;-76
2022/11/28 00:23:33;;;;;;;42.45;15.80;;;;;;;;;;1045990;28;20024;-76
2022/11/28 00:24:04;;;;;;;36.72;13.88;;;;;;;;;;1048890;28;20047;-76
2022/11/28 00:24:34;;;;;;;30.90;14.30;;;;;;;;;;1045751;28;20519;-76
2022/11/28 00:25:05;;;;;;;36.50;14.25;;;;;;;;;;1048085;28;20024;-76
2022/11/28 00:25:36;;;;;;;29.67;13.25;;;;;;;;;;1045758;28;20021;-76
2022/11/28 00:26:08;;;;;;;28.40;13.90;;;;;;;;;;1045367;28;20025;-76
2022/11/28 00:26:40;;;;;;;36.47;13.90;;;;;;;;;;1042497;28;20025;-76
2022/11/28 00:27:10;;;;;;;23.90;13.50;;;;;;;;;;1042153;28;20587;-76
2022/11/28 00:27:41;;;;;;;32.50;13.27;;;;;;;;;;1044469;28;20144;-76
2022/11/28 00:28:11;;;;;;;46.45;12.18;;;;;;;;;;1039584;28;20031;-76
2022/11/28 00:28:42;;;;;;;25.20;13.10;;;;;;;;;;1043644;28;20504;-76
2022/11/28 00:29:13;;;;;;;32.03;12.75;;;;;;;;;;1047405;28;20020;-76
2022/11/28 00:29:43;;;;;;;37.08;13.52;;;;;;;;;;1048344;28;20506;-76
2022/11/28 00:30:14;;;;;;;31.60;12.32;;;;;;;;;;1049782;28;20123;-76
2022/11/28 00:30:44;;;;;;;27.15;12.13;;;;;;;;;;1046861;28;20013;-76
2022/11/28 00:31:16;;;;;;;28.20;13.18;;;;;;;;;;1046025;28;20056;-76
2022/11/28 00:31:47;;;;;;;30.50;13.68;;;;;;;;;;1044371;28;20127;-76
2022/11/28 00:32:17;;;;;;;31.35;12.63;;;;;;;;;;1045171;28;20723;-76
2022/11/28 00:32:48;;;;;;;26.60;11.98;;;;;;;;;;1043559;28;20028;-76
2022/11/28 00:33:18;;;;;;;25.95;13.55;;;;;;;;;;1042609;28;20028;-76
2022/11/28 00:33:49;;;;;;;30.92;13.13;;;;;;;;;;1049480;28;20047;-76
2022/11/28 00:34:20;;;;;;;33.33;14.50;;;;;;;;;;1047269;28;20097;-76
2022/11/28 00:34:51;;;;;;;31.98;13.95;;;;;;;;;;1045617;28;20119;-76
2022/11/28 00:35:21;;;;;;;31.05;13.90;;;;;;;;;;1046437;28;20048;-76
2022/11/28 00:35:57;;;;;;;38.20;15.68;;;;;;;;;;1045846;28;20022;-76
2022/11/28 00:36:28;;;;;;;30.63;15.18;;;;;;;;;;1047971;28;20055;-76
2022/11/28 00:36:58;;;;;;;26.25;13.02;;;;;;;;;;1041946;28;20106;-76
2022/11/28 00:37:29;;;;;;;31.35;14.95;;;;;;;;;;1043278;28;20053;-76
2022/11/28 00:37:59;;;;;;;26.67;14.38;;;;;;;;;;1046662;28;20056;-76
2022/11/28 00:38:30;;;;;;;26.10;13.07;;;;;;;;;;1044308;28;20099;-76
2022/11/28 00:39:01;;;;;;;32.65;13.00;;;;;;;;;;1046078;28;20449;-76
2022/11/28 00:39:31;;;;;;;30.13;13.43;;;;;;;;;;1045718;28;20025;-76
2022/11/28 00:40:02;;;;;;;35.63;12.50;;;;;;;;;;1047059;28;20468;-76
2022/11/28 00:40:33;;;;;;;33.15;14.43;;;;;;;;;;1047212;28;20013;-76
2022/11/28 00:41:05;;;;;;;35.60;13.48;;;;;;;;;;1047604;28;20021;-76
2022/11/28 00:41:35;;;;;;;34.42;14.82;;;;;;;;;;1043253;28;20104;-76
2022/11/28 00:42:06;;;;;;;29.85;12.43;;;;;;;;;;1040410;28;20465;-76
2022/11/28 00:42:36;;;;;;;35.65;14.70;;;;;;;;;;1043205;28;20108;-76
2022/11/28 00:43:07;;;;;;;27.42;14.30;;;;;;;;;;1047182;28;20097;-76
2022/11/28 00:43:38;;;;;;;25.75;12.00;;;;;;;;;;1048355;28;20044;-76
2022/11/28 00:44:10;;;;;;;30.13;13.82;;;;;;;;;;1042587;28;20033;-76
2022/11/28 00:44:40;;;;;;;28.25;13.40;;;;;;;;;;1044795;28;20039;-76
2022/11/28 00:45:11;;;;;;;32.53;14.32;;;;;;;;;;1044682;28;20024;-76
2022/11/28 00:45:41;;;;;;;32.78;12.60;;;;;;;;;;1044165;28;20032;-76
2022/11/28 00:46:13;;;;;;;32.20;13.80;;;;;;;;;;1045167;28;20013;-76
2022/11/28 00:46:43;;;;;;;46.83;15.90;;;;;;;;;;1043719;28;20033;-76
2022/11/28 00:47:14;;;;;;;29.30;12.38;;;;;;;;;;1042943;28;20091;-76
2022/11/28 00:47:47;;;;;;;36.47;14.20;;;;;;;;;;1045831;28;20024;-76
2022/11/28 00:48:17;;;;;;;31.42;14.18;;;;;;;;;;1047946;28;20055;-76
2022/11/28 00:48:48;;;;;;;30.52;12.98;;;;;;;;;;1047250;28;20119;-76
2022/11/28 00:49:19;;;;;;;31.15;14.20;;;;;;;;;;1045368;28;20578;-76
2022/11/28 00:49:49;;;;;;;39.17;15.45;;;;;;;;;;1045834;28;20048;-76
2022/11/28 00:50:20;;;;;;;30.63;12.57;;;;;;;;;;1045851;28;20036;-76
2022/11/28 00:50:50;;;;;;;36.30;14.13;;;;;;;;;;1049046;28;20024;-76
2022/11/28 00:51:22;;;;;;;30.05;13.75;;;;;;;;;;1047882;28;20021;-76
2022/11/28 00:51:53;;;;;;;30.70;13.35;;;;;;;;;;1042629;28;20026;-76
2022/11/28 00:52:23;;;;;;;23.73;12.63;;;;;;;;;;1044231;28;20455;-76
2022/11/28 00:52:54;;;;;;;32.28;13.65;;;;;;;;;;1044133;28;20039;-76
2022/11/28 00:53:25;;;;;;;32.50;15.35;;;;;;;;;;1044214;28;20143;-76
2022/11/28 00:53:56;;;;;;;34.03;15.73;;;;;;;;;;1045972;28;20020;-76
2022/11/28 00:54:26;;;;;;;37.15;12.98;;;;;;;;;;1045360;28;20043;-76
2022/11/28 00:54:57;;;;;;;30.55;13.60;;;;;;;;;;1042822;28;20090;-76
2022/11/28 00:55:27;;;;;;;29.42;12.48;;;;;;;;;;1043731;28;20032;-76
2022/11/28 00:55:58;;;;;;;26.90;12.77;;;;;;;;;;1049437;28;20032;-76
2022/11/28 00:56:30;;;;;;;39.40;14.65;;;;;;;;;;1048746;28;20598;-76
2022/11/28 00:57:01;;;;;;;29.40;12.35;;;;;;;;;;1047862;28;20029;-76
2022/11/28 00:57:31;;;;;;;26.98;14.35;;;;;;;;;;1044683;28;20499;-76
2022/11/28 00:58:02;;;;;;;46.92;15.60;;;;;;;;;;1044295;28;20077;-76
2022/11/28 00:58:33;;;;;;;30.95;14.25;;;;;;;;;;1045309;28;20481;-76
2022/11/28 00:59:04;;;;;;;31.52;15.82;;;;;;;;;;1047251;28;20078;-76
2022/11/28 00:59:35;;;;;;;28.33;13.63;;;;;;;;;;1048253;28;20028;-76
2022/11/28 01:00:06;;;;;;;37.83;14.25;;;;;;;;;;1046593;28;20040;-76
2022/11/28 01:00:37;;;;;;;39.53;15.80;;;;;;;;;;1049631;28;20013;-76
2022/11/28 01:01:28;;;;;;;27.92;12.80;;;;;;;;;;1049236;28;20028;-76
2022/11/28 01:01:58;;;;;;;38.80;14.02;;;;;;;;;;1030769;28;20039;-76
2022/11/28 01:02:29;;;;;;;40.60;14.73;;;;;;;;;;1043358;28;20029;-76
2022/11/28 01:02:59;;;;;;;37.60;16.10;;;;;;;;;;1046073;28;20194;-76
2022/11/28 01:03:30;;;;;;;25.15;13.07;;;;;;;;;;1042856;28;20140;-76
2022/11/28 01:04:01;;;;;;;35.60;13.00;;;;;;;;;;1049288;28;20078;-76
2022/11/28 01:04:32;;;;;;;29.40;13.10;;;;;;;;;;1046985;28;20020;-76
2022/11/28 01:05:02;;;;;;;34.25;13.13;;;;;;;;;;1046120;28;20021;-76
2022/11/28 01:05:38;;;;;;;35.40;12.48;;;;;;;;;;1045256;28;20028;-76
2022/11/28 01:06:09;;;;;;;37.65;12.73;;;;;;;;;;1046716;28;20025;-76
2022/11/28 01:06:47;;;;;;;35.35;15.25;;;;;;;;;;1051133;28;20025;-76
2022/11/28 01:07:18;;;;;;;37.78;14.30;;;;;;;;;;1048638;28;20017;-76
2022/11/28 01:07:48;;;;;;;32.15;14.00;;;;;;;;;;1045107;28;20020;-76
2022/11/28 01:08:19;;;;;;;32.83;14.63;;;;;;;;;;1047536;28;20020;-76
2022/11/28 01:08:50;;;;;;;34.70;12.05;;;;;;;;;;1050599;28;20036;-76
2022/11/28 01:09:21;;;;;;;40.83;14.02;;;;;;;;;;1050393;28;20039;-76
2022/11/28 01:09:52;;;;;;;29.85;14.70;;;;;;;;;;1049035;28;20694;-76
2022/11/28 01:10:22;;;;;;;33.45;14.70;;;;;;;;;;1048377;28;20076;-76
2022/11/28 01:10:53;;;;;;;34.55;13.95;;;;;;;;;;1045391;28;20092;-76
2022/11/28 01:11:24;;;;;;;38.97;14.00;;;;;;;;;;1045745;28;20029;-76
2022/11/28 01:11:55;;;;;;;28.95;13.18;;;;;;;;;;1042829;28;20033;-76
2022/11/28 01:12:25;;;;;;;29.55;13.43;;;;;;;;;;1046072;28;20017;-76
2022/11/28 01:12:56;;;;;;;28.88;14.13;;;;;;;;;;1041321;28;20037;-76
2022/11/28 01:13:27;;;;;;;35.35;14.68;;;;;;;;;;1039963;28;20999;-76
2022/11/28 01:14:00;;;;;;;38.17;13.32;;;;;;;;;;1041892;28;20017;-76
2022/11/28 01:14:30;;;;;;;35.42;13.65;;;;;;;;;;1042986;28;20017;-76
2022/11/28 01:15:01;;;;;;;32.42;12.77;;;;;;;;;;1045832;28;20020;-76
2022/11/28 01:15:32;;;;;;;29.17;12.90;;;;;;;;;;1046649;28;20047;-76
2022/11/28 01:16:02;;;;;;;31.60;14.27;;;;;;;;;;1046354;28;20021;-76
2022/11/28 01:16:33;;;;;;;25.38;11.07;;;;;;;;;;1045952;28;20029;-76
2022/11/28 01:17:04;;;;;;;35.22;13.77;;;;;;;;;;1045268;28;20020;-76
2022/11/28 01:17:34;;;;;;;28.40;11.90;;;;;;;;;;1045916;28;20141;-76
2022/11/28 01:18:05;;;;;;;31.02;13.10;;;;;;;;;;1045385;28;20032;-76
2022/11/28 01:18:36;;;;;;;30.52;13.23;;;;;;;;;;1046608;28;20112;-76
2022/11/28 01:19:07;;;;;;;30.08;13.73;;;;;;;;;;1050068;28;20020;-76
2022/11/28 01:19:37;;;;;;;31.77;13.57;;;;;;;;;;1051928;28;20087;-76
2022/11/28 01:20:08;;;;;;;23.92;11.68;;;;;;;;;;1050974;28;20028;-76
2022/11/28 01:20:39;;;;;;;30.15;14.25;;;;;;;;;;1044038;28;20158;-76
2022/11/28 01:21:09;;;;;;;25.23;13.40;;;;;;;;;;1047123;28;20013;-76
2022/11/28 01:21:40;;;;;;;28.10;14.07;;;;;;;;;;1048614;28;20013;-76
2022/11/28 01:22:10;;;;;;;35.33;14.52;;;;;;;;;;1046156;28;20028;-77
2022/11/28 01:22:41;;;;;;;30.33;14.43;;;;;;;;;;1038616;28;20401;-77
2022/11/28 01:23:12;;;;;;;37.00;14.05;;;;;;;;;;1039612;28;20021;-77
2022/11/28 01:23:43;;;;;;;36.58;15.15;;;;;;;;;;1043866;28;20063;-77
2022/11/28 01:24:14;;;;;;;27.15;12.93;;;;;;;;;;1051227;28;20103;-77
2022/11/28 01:24:44;;;;;;;43.35;14.02;;;;;;;;;;1045157;28;20017;-76
2022/11/28 01:25:15;;;;;;;34.60;15.75;;;;;;;;;;1041527;28;20025;-77
2022/11/28 01:25:45;;;;;;;30.35;13.50;;;;;;;;;;1046850;28;20016;-77
2022/11/28 01:26:20;;;;;;;34.75;12.27;;;;;;;;;;1043849;28;20028;-77
2022/11/28 01:26:51;;;;;;;37.42;13.10;;;;;;;;;;1046086;28;20025;-79
2022/11/28 01:27:21;;;;;;;24.70;13.32;;;;;;;;;;1045153;28;20201;-78
2022/11/28 01:27:52;;;;;;;33.70;13.20;;;;;;;;;;1045640;28;20743;-78
2022/11/28 01:28:23;;;;;;;30.63;13.20;;;;;;;;;;1043799;28;20017;-78
2022/11/28 01:28:54;;;;;;;34.55;13.90;;;;;;;;;;1043542;28;20025;-81
2022/11/28 01:29:24;;;;;;;29.95;14.23;;;;;;;;;;1046820;28;20021;-80
2022/11/28 01:29:55;;;;;;;28.52;12.63;;;;;;;;;;1045957;28;20024;-79
2022/11/28 01:30:26;;;;;;;33.47;14.25;;;;;;;;;;1041809;28;20476;-79
2022/11/28 01:31:01;;;;;;;28.25;12.18;;;;;;;;;;1042546;28;20059;-80
2022/11/28 01:31:32;;;;;;;38.72;13.25;;;;;;;;;;1039867;28;20026;-79
2022/11/28 01:32:02;;;;;;;41.00;13.60;;;;;;;;;;1042917;28;20528;-79
2022/11/28 01:32:33;;;;;;;27.73;12.73;;;;;;;;;;1042742;28;20050;-79
2022/11/28 01:33:06;;;;;;;31.40;11.95;;;;;;;;;;1041810;28;20029;-79
2022/11/28 01:33:37;;;;;;;38.25;12.65;;;;;;;;;;1046358;28;21530;-80
2022/11/28 01:34:07;;;;;;;25.67;12.27;;;;;;;;;;1044440;28;20029;-79
2022/11/28 01:34:38;;;;;;;36.00;13.90;;;;;;;;;;1057278;22;20007;-79
2022/11/28 01:35:09;;;;;;;37.70;13.07;;;;;;;;;;1045011;28;20083;-79
2022/11/28 01:35:42;;;;;;;33.00;13.15;;;;;;;;;;1045527;28;20052;-80
2022/11/28 01:36:13;;;;;;;32.92;13.77;;;;;;;;;;1045629;28;20108;-80
2022/11/28 01:36:44;;;;;;;31.27;13.98;;;;;;;;;;1048944;28;20403;-80
2022/11/28 01:37:15;;;;;;;39.28;13.18;;;;;;;;;;1048130;28;20365;-80
2022/11/28 01:37:46;;;;;;;26.05;13.85;;;;;;;;;;1044487;28;20055;-80
2022/11/28 01:38:16;;;;;;;28.00;12.52;;;;;;;;;;1045594;28;20035;-79
2022/11/28 01:38:48;;;;;;;35.63;12.93;;;;;;;;;;1045319;28;20024;-79
2022/11/28 01:39:19;;;;;;;31.67;13.85;;;;;;;;;;1046279;28;20525;-80
2022/11/28 01:39:49;;;;;;;33.00;12.88;;;;;;;;;;1050101;28;20026;-80
2022/11/28 01:40:20;;;;;;;36.00;14.65;;;;;;;;;;1048761;28;20092;-80
2022/11/28 01:40:51;;;;;;;34.72;14.48;;;;;;;;;;1041885;28;20029;-77
2022/11/28 01:41:23;;;;;;;38.47;14.15;;;;;;;;;;1044822;28;20021;-79
2022/11/28 01:41:54;;;;;;;32.33;13.32;;;;;;;;;;1036322;28;20021;-78
2022/11/28 01:42:24;;;;;;;33.00;13.32;;;;;;;;;;1038042;28;20026;-80
2022/11/28 01:42:55;;;;;;;27.80;13.00;;;;;;;;;;1040809;28;20025;-80
2022/11/28 01:43:26;;;;;;;30.98;13.27;;;;;;;;;;1042290;28;20190;-80
2022/11/28 01:43:59;;;;;;;36.15;15.43;;;;;;;;;;1050216;28;20021;-80
2022/11/28 01:44:29;;;;;;;40.63;18.60;;;;;;;;;;1052671;28;20023;-80
2022/11/28 01:45:04;;;;;;;38.45;15.15;;;;;;;;;;1049753;28;20062;-79
2022/11/28 01:45:34;;;;;;;36.88;12.60;;;;;;;;;;1049616;28;20035;-79
2022/11/28 01:46:05;;;;;;;29.83;14.27;;;;;;;;;;1049353;28;20027;-79
2022/11/28 01:46:39;;;;;;;33.65;13.15;;;;;;;;;;1049382;28;20035;-79
2022/11/28 01:47:10;;;;;;;38.10;17.70;;;;;;;;;;1049739;28;20020;-79
2022/11/28 01:47:41;;;;;;;30.90;15.38;;;;;;;;;;1049552;28;20107;-80
2022/11/28 01:48:14;;;;;;;28.05;13.07;;;;;;;;;;1049507;28;20021;-80
2022/11/28 01:48:45;;;;;;;36.63;17.20;;;;;;;;;;1049230;28;20021;-79
2022/11/28 01:49:19;;;;;;;39.25;16.23;;;;;;;;;;1048121;28;20028;-79
2022/11/28 01:49:53;;;;;;;31.63;13.73;;;;;;;;;;1045428;28;20061;-79
2022/11/28 01:50:25;;;;;;;29.77;13.23;;;;;;;;;;1049026;28;20024;-80
2022/11/28 01:50:59;;;;;;;30.95;14.65;;;;;;;;;;1050225;28;20024;-79
2022/11/28 01:51:30;;;;;;;36.67;12.27;;;;;;;;;;1052346;22;20017;-78
2022/11/28 01:52:03;;;;;;;34.70;14.38;;;;;;;;;;1041492;28;20097;-79
2022/11/28 01:52:35;;;;;;;28.55;12.50;;;;;;;;;;1037133;28;20022;-79
2022/11/28 01:53:08;;;;;;;36.38;12.68;;;;;;;;;;1032005;28;20026;-79
2022/11/28 01:53:42;;;;;;;31.45;12.27;;;;;;;;;;1037416;28;20095;-81
2022/11/28 01:54:14;;;;;;;27.35;12.90;;;;;;;;;;1035622;28;20064;-80
2022/11/28 01:54:49;;;;;;;26.58;13.35;;;;;;;;;;1033217;28;20580;-79
2022/11/28 01:55:21;;;;;;;29.77;12.32;;;;;;;;;;1038263;28;20042;-79
2022/11/28 01:55:55;;;;;;;37.08;15.88;;;;;;;;;;1041090;28;20036;-79
2022/11/28 01:56:27;;;;;;;26.02;13.13;;;;;;;;;;1039931;28;20021;-79
2022/11/28 01:57:04;;;;;;;35.35;15.57;;;;;;;;;;1038432;28;20025;-80
2022/11/28 01:57:35;;;;;;;27.67;12.63;;;;;;;;;;1048213;22;20067;-80
2022/11/28 01:58:10;;;;;;;29.55;11.98;;;;;;;;;;1044956;28;20021;-80
2022/11/28 01:58:43;;;;;;;29.92;14.32;;;;;;;;;;1041523;28;20055;-80
2022/11/28 01:59:14;;;;;;;26.23;12.55;;;;;;;;;;1044283;28;20036;-80
2022/11/28 01:59:52;;;;;;;33.63;13.25;;;;;;;;;;1072684;22;20039;-80
2022/11/28 02:00:23;;;;;;;33.03;11.88;;;;;;;;;;1048713;28;20062;-79
2022/11/28 02:00:54;;;;;;;24.50;12.25;;;;;;;;;;1050447;28;20016;-80
2022/11/28 02:01:25;;;;;;;27.02;11.52;;;;;;;;;;1083809;22;20010;-80
2022/11/28 02:01:56;;;;;;;29.83;11.23;;;;;;;;;;1044773;28;20040;-80
2022/11/28 02:02:35;;;;;;;31.42;12.05;;;;;;;;;;1044716;28;20049;-82
2022/11/28 02:03:09;;;;;;;27.13;13.77;;;;;;;;;;1044129;28;20029;-79
2022/11/28 02:03:44;;;;;;;29.85;12.25;;;;;;;;;;1056039;23;20538;-78
2022/11/28 02:04:15;;;;;;;24.65;11.38;;;;;;;;;;1034622;28;20670;-79
2022/11/28 02:04:48;;;;;;;36.53;11.30;;;;;;;;;;1035933;28;20033;-79
2022/11/28 02:05:19;;;;;;;24.00;11.80;;;;;;;;;;1034137;28;20019;-78
2022/11/28 02:05:51;;;;;;;25.38;11.10;;;;;;;;;;1038263;28;20033;-78
2022/11/28 02:06:23;;;;;;;23.50;11.80;;;;;;;;;;1040144;28;20065;-80
2022/11/28 02:06:54;;;;;;;30.27;11.70;;;;;;;;;;1042308;28;20025;-80
2022/11/28 02:07:26;;;;;;;33.83;10.25;;;;;;;;;;1041066;28;20014;-80
2022/11/28 02:07:57;;;;;;;25.63;11.30;;;;;;;;;;1040303;28;20567;-80
2022/11/28 02:08:32;;;;;;;25.45;11.15;;;;;;;;;;1042045;28;20075;-80
2022/11/28 02:09:05;;;;;;;33.25;11.13;;;;;;;;;;1037248;28;20017;-80
2022/11/28 02:09:39;;;;;;;28.35;10.15;;;;;;;;;;1035954;28;20986;-82
2022/11/28 02:10:14;;;;;;;27.05;10.43;;;;;;;;;;1044761;22;20363;-81
2022/11/28 02:11:00;;;;;;;33.58;11.52;;;;;;;;;;1039401;28;20030;-81
2022/11/28 02:11:49;;;;;;;26.15;11.18;;;;;;;;;;1045002;28;20508;-82
2022/11/28 02:12:22;;;;;;;25.30;10.98;;;;;;;;;;1044878;28;20032;-81
2022/11/28 02:13:05;;;;;;;28.95;12.43;;;;;;;;;;1041292;28;20033;-82
2022/11/28 02:13:42;;;;;;;23.63;9.60;;;;;;;;;;1038199;28;20025;-82
2022/11/28 02:14:34;;;;;;;24.40;9.05;;;;;;;;;;1036203;28;20505;-82
2022/11/28 02:15:14;;;;;;;23.60;10.30;;;;;;;;;;1053734;23;20052;-80
2022/11/28 02:15:54;;;;;;;25.42;10.90;;;;;;;;;;1052695;28;20028;-79
2022/11/28 02:16:44;;;;;;;31.13;10.77;;;;;;;;;;1051056;28;20027;-79
2022/11/28 02:17:33;;;;;;;25.58;11.68;;;;;;;;;;1051301;28;20111;-79
2022/11/28 02:18:03;;;;;;;33.60;12.38;;;;;;;;;;1055070;22;20030;-80
2022/11/28 02:18:37;;;;;;;25.25;11.95;;;;;;;;;;1043063;28;20029;-79
2022/11/28 02:19:18;;;;;;;29.23;11.82;;;;;;;;;;1043275;28;20033;-81
2022/11/28 02:19:48;;;;;;;41.65;14.15;;;;;;;;;;1042149;28;20032;-81
2022/11/28 02:20:37;;;;;;;28.55;11.85;;;;;;;;;;1043942;28;20053;-81
2022/11/28 02:21:17;;;;;;;25.05;12.55;;;;;;;;;;1041884;28;20073;-80
2022/11/28 02:21:47;;;;;;;32.22;13.60;;;;;;;;;;1041794;28;20036;-80
2022/11/28 02:22:24;;;;;;;31.17;10.15;;;;;;;;;;1043743;28;20036;-80
2022/11/28 02:23:10;;;;;;;29.92;12.27;;;;;;;;;;1041538;28;20080;-79
2022/11/28 02:24:11;;;;;;;30.30;13.50;;;;;;;;;;1041895;28;20025;-80
2022/11/28 02:24:41;;;;;;;53.90;17.27;;;;;;;;;;1045259;28;20027;-79
2022/11/28 02:25:21;;;;;;;42.20;18.88;;;;;;;;;;1041077;28;20059;-79
2022/11/28 02:25:54;;;;;;;42.53;19.07;;;;;;;;;;1039075;28;20030;-79
2022/11/28 02:26:43;;;;;;;43.95;17.83;;;;;;;;;;1038828;28;20689;-80
2022/11/28 02:27:13;;;;;;;52.03;21.52;;;;;;;;;;1037374;28;20029;-79
2022/11/28 02:28:02;;;;;;;52.08;23.48;;;;;;;;;;1038632;28;20439;-79
2022/11/28 02:28:33;;;;;;;55.13;21.92;;;;;;;;;;1036110;28;20115;-79
2022/11/28 02:29:09;;;;;;;51.58;23.25;;;;;;;;;;1035321;28;20464;-79
2022/11/28 02:29:40;;;;;;;53.97;27.75;;;;;;;;;;1038107;28;20049;-79
2022/11/28 02:30:13;;;;;;;50.08;27.17;;;;;;;;;;1039585;28;20014;-79
2022/11/28 02:30:44;;;;;;;55.22;25.80;;;;;;;;;;1040612;28;20025;-79
2022/11/28 02:31:33;;;;;;;50.42;23.58;;;;;;;;;;1040096;28;20563;-80
2022/11/28 02:32:10;;;;;;;41.58;18.58;;;;;;;;;;1036816;28;20018;-80
2022/11/28 02:32:59;;;;;;;46.45;19.80;;;;;;;;;;1039226;28;20197;-80
2022/11/28 02:33:35;;;;;;;44.42;16.45;;;;;;;;;;1040613;28;20021;-80
2022/11/28 02:34:11;;;;;;;67.38;27.77;;;;;;;;;;1041283;28;20056;-80
2022/11/28 02:34:41;;;;;;;51.47;24.70;;;;;;;;;;1038542;28;20026;-80
2022/11/28 02:35:19;;;;;;;43.05;18.08;;;;;;;;;;1033306;28;20097;-79
2022/11/28 02:36:08;;;;;;;46.63;17.45;;;;;;;;;;1036742;28;20120;-80
2022/11/28 02:36:49;;;;;;;36.10;19.70;;;;;;;;;;1038153;28;20496;-81
2022/11/28 02:37:24;;;;;;;43.97;23.17;;;;;;;;;;1045086;23;20053;-79
2022/11/28 02:37:55;;;;;;;46.33;17.73;;;;;;;;;;1039893;28;20029;-79
2022/11/28 02:38:44;;;;;;;58.05;21.67;;;;;;;;;;1048577;22;20021;-79
2022/11/28 02:39:21;;;;;;;41.22;19.63;;;;;;;;;;1038184;28;20224;-79
2022/11/28 02:40:11;;;;;;;40.35;20.73;;;;;;;;;;1037465;28;20480;-79
2022/11/28 02:41:00;;;;;;;46.97;20.93;;;;;;;;;;1036898;28;20013;-79
2022/11/28 02:41:34;;;;;;;32.22;16.83;;;;;;;;;;1045185;28;20762;-80
2022/11/28 02:42:14;;;;;;;31.08;16.80;;;;;;;;;;1044273;28;20013;-79
2022/11/28 02:42:50;;;;;;;38.22;16.10;;;;;;;;;;1040380;28;20474;-81
2022/11/28 02:43:23;;;;;;;38.42;19.50;;;;;;;;;;1040075;28;20040;-81
2022/11/28 02:44:17;;;;;;;52.13;22.60;;;;;;;;;;1041619;28;20567;-81
2022/11/28 02:44:59;;;;;;;47.45;21.63;;;;;;;;;;1042029;28;20021;-79
2022/11/28 02:45:45;;;;;;;49.72;20.35;;;;;;;;;;1042045;28;20031;-79
2022/11/28 02:46:21;;;;;;;42.10;18.40;;;;;;;;;;1043975;28;20021;-81
2022/11/28 02:46:58;;;;;;;32.15;17.33;;;;;;;;;;1047513;28;20395;-80
2022/11/28 02:47:34;;;;;;;42.45;16.55;;;;;;;;;;1041685;28;20116;-80
2022/11/28 02:48:26;;;;;;;39.05;13.93;;;;;;;;;;1045599;28;20013;-81
2022/11/28 02:49:02;;;;;;;39.35;14.63;;;;;;;;;;1045033;28;20025;-80
2022/11/28 02:49:33;;;;;;;29.30;13.60;;;;;;;;;;1043221;28;20021;-80
2022/11/28 02:50:04;;;;;;;39.78;14.82;;;;;;;;;;1045876;28;20056;-81
2022/11/28 02:50:44;;;;;;;44.30;15.73;;;;;;;;;;1043603;28;20113;-81
2022/11/28 02:51:17;;;;;;;50.35;16.80;;;;;;;;;;1041609;28;20025;-79
2022/11/28 02:51:52;;;;;;;41.10;16.33;;;;;;;;;;1042062;28;20067;-79
2022/11/28 02:52:40;;;;;;;40.13;16.08;;;;;;;;;;1040152;28;20212;-79
2022/11/28 02:53:13;;;;;;;40.75;17.63;;;;;;;;;;1042167;28;20230;-81
2022/11/28 02:53:45;;;;;;;57.58;19.13;;;;;;;;;;1043881;28;20224;-81
2022/11/28 02:54:16;;;;;;;40.75;17.00;;;;;;;;;;1052533;22;20048;-81
2022/11/28 02:54:48;;;;;;;41.13;16.13;;;;;;;;;;1048298;28;20505;-80
2022/11/28 02:55:20;;;;;;;42.30;17.35;;;;;;;;;;1047947;28;20587;-80
2022/11/28 02:55:51;;;;;;;28.60;16.38;;;;;;;;;;1045361;28;20072;-81
2022/11/28 02:56:25;;;;;;;47.13;16.73;;;;;;;;;;1044447;28;20033;-80
2022/11/28 02:56:56;;;;;;;46.05;15.95;;;;;;;;;;1043078;28;20119;-78
2022/11/28 02:57:46;;;;;;;49.00;15.23;;;;;;;;;;1045400;28;20574;-78
2022/11/28 02:58:17;;;;;;;;;;;;;;;;;;1050472;28;20036;-81
2022/11/28 02:58:48;;;;;;;34.03;14.38;;;;;;;;;;1046000;28;19929;-80
2022/11/28 02:59:37;;;;;;;37.72;16.13;;;;;;;;;;1045895;28;20029;-80
2022/11/28 03:01:06;;;;;;;43.83;15.45;;;;;;;;;;1055570;22;20060;-81
2022/11/28 03:01:37;;;;;;;39.90;17.02;;;;;;;;;;1042313;28;20033;-80
2022/11/28 03:02:16;;;;;;;36.60;16.65;;;;;;;;;;1042865;28;20454;-80
2022/11/28 03:03:01;;;;;;;32.95;17.08;;;;;;;;;;1036203;28;20103;-80
2022/11/28 03:03:47;;;;;;;36.70;17.38;;;;;;;;;;1037959;28;20060;-80
2022/11/28 03:04:30;;;;;;;42.78;19.30;;;;;;;;;;1038398;28;20024;-80
2022/11/28 03:05:05;;;;;;;60.55;26.80;;;;;;;;;;1034929;28;20564;-80
2022/11/28 03:05:55;;;;;;;48.63;23.60;;;;;;;;;;1034787;28;20022;-81
2022/11/28 03:06:32;;;;;;;35.15;17.23;;;;;;;;;;1039880;28;20028;-79
2022/11/28 03:07:06;;;;;;;44.00;17.80;;;;;;;;;;1054550;22;20028;-80
2022/11/28 03:07:54;;;;;;;39.08;16.33;;;;;;;;;;1045023;28;20085;-80
2022/11/28 03:08:49;;;;;;;46.83;15.27;;;;;;;;;;1044828;28;20033;-82
2022/11/28 03:09:36;;;;;;;42.33;14.55;;;;;;;;;;1037269;28;20583;-81
2022/11/28 03:10:24;;;;;;;33.00;13.35;;;;;;;;;;1041238;28;20053;-81
2022/11/28 03:10:57;;;;;;;36.38;14.25;;;;;;;;;;1046006;28;20484;-80
2022/11/28 03:12:19;;;;;;;45.75;14.40;;;;;;;;;;1059938;22;20443;-80
2022/11/28 03:12:55;;;;;;;30.50;12.82;;;;;;;;;;1046542;28;20408;-80
2022/11/28 03:13:41;;;;;;;27.15;13.25;;;;;;;;;;1046943;28;20170;-81
2022/11/28 03:14:23;;;;;;;30.88;13.85;;;;;;;;;;1042290;28;20517;-80
2022/11/28 03:14:53;;;;;;;33.15;11.52;;;;;;;;;;1043131;28;20060;-79
2022/11/28 03:15:29;;;;;;;33.80;13.68;;;;;;;;;;1048220;28;20546;-80
2022/11/28 03:16:13;;;;;;;38.60;14.65;;;;;;;;;;1048846;28;20077;-80
2022/11/28 03:16:52;;;;;;;30.92;12.60;;;;;;;;;;1049378;28;20176;-80
2022/11/28 03:17:41;;;;;;;31.65;13.48;;;;;;;;;;1046405;28;20025;-81
2022/11/28 03:18:23;;;;;;;37.15;14.00;;;;;;;;;;1050042;28;20016;-81